Noatak Airport Noatak US
ICAO: PAWN
IATA:
Category: Medium
Scheduled Services:

Elevation: 88 ft
TransAlt. 18000 ft.

Airport Communications:
AWOS 3:135.75
ANCHORAGE CNTR:119.2
KOTZEBUE RDO:122.4
CTAF/UNICOM:122.8

PAWN Zoom In..

If you have problems with the map follow the link
https://www.worldairports.se/pages/airport.php?
ICAO=PAWN

Runways:

(A) RW 01 length 3992 ft width 60 ft
---- / hdg 7

(B) RW 19 length 3992 ft width 60 ft
---- / hdg 187

Location; PAWN
Day. 12 / Time. 09.56 Zulu
* Altimeter: 29.57
* Temperature: -13° c. -8.6°f.
* Wind from: 000° Speed 00 kn.
Dewpoint: -15° c.
Visibility: 10 Statute Miles.
Clouds: Clear (automated report).

PAWN 120956Z AUTO 00000KT 10SM CLR M13/M15 A2957 RMK AO2 SLP026 T11331150 FZRANO


Wind - Calm.

 
 
jpsmedia worldairports.se 2019   terms of use